createdAt,value
2022-09-23T00:01:12.123Z,3.60
2022-09-23T00:04:05.234Z,4.70
2022-09-23T00:06:44.360Z,3.80
2022-09-23T00:09:29.026Z,4.80
2022-09-23T00:12:39.297Z,4.60
2022-09-23T00:15:46.275Z,5.00
2022-09-23T00:18:51.030Z,4.20
2022-09-23T00:21:29.116Z,4.60
2022-09-23T00:24:33.831Z,5.30
2022-09-23T00:27:12.973Z,6.40
2022-09-23T00:30:10.025Z,4.00
2022-09-23T00:33:13.313Z,4.20
2022-09-23T00:36:09.452Z,4.00
2022-09-23T00:39:00.043Z,4.60
2022-09-23T00:41:44.312Z,5.50
2022-09-23T00:44:53.954Z,3.50
2022-09-23T00:47:37.997Z,4.80
2022-09-23T00:50:30.819Z,4.50
2022-09-23T00:53:13.675Z,4.90
2022-09-23T00:56:07.783Z,4.50
2022-09-23T00:58:45.623Z,3.90
2022-09-23T01:01:22.590Z,5.30
2022-09-23T01:03:59.813Z,3.90
2022-09-23T01:06:35.184Z,4.40
2022-09-23T01:09:10.141Z,3.30
2022-09-23T01:12:37.356Z,3.60
2022-09-23T01:15:49.033Z,6.50
2022-09-23T01:19:07.095Z,5.20
2022-09-23T01:22:38.648Z,3.40
2022-09-23T01:26:16.438Z,4.00
2022-09-23T01:29:30.008Z,4.30
2022-09-23T01:32:42.423Z,5.70
2022-09-23T01:35:48.797Z,4.20
2022-09-23T01:39:06.962Z,4.10
2022-09-23T01:42:48.322Z,4.70
2022-09-23T01:45:40.131Z,3.70
2022-09-23T01:48:59.357Z,5.10
2022-09-23T01:51:52.057Z,4.50
2022-09-23T01:54:58.524Z,6.10
2022-09-23T01:58:02.274Z,5.00
2022-09-23T02:00:58.239Z,3.80
2022-09-23T02:03:41.287Z,6.10
2022-09-23T02:06:53.293Z,3.70
2022-09-23T02:09:41.943Z,3.90
2022-09-23T02:12:20.054Z,4.00
2022-09-23T02:15:13.227Z,3.70
2022-09-23T02:18:17.633Z,4.10
2022-09-23T02:21:10.034Z,4.20
2022-09-23T02:23:53.705Z,3.90
2022-09-23T02:26:34.380Z,5.20
2022-09-23T02:29:29.602Z,2.90
2022-09-23T02:32:34.108Z,5.90
2022-09-23T02:35:49.606Z,4.40
2022-09-23T02:38:29.795Z,4.30
2022-09-23T02:41:21.893Z,4.70
2022-09-23T02:44:07.001Z,4.10
2022-09-23T02:46:40.363Z,5.00
2022-09-23T02:49:32.606Z,5.10
2022-09-23T02:52:08.199Z,6.40
2022-09-23T02:54:41.354Z,4.30
2022-09-23T02:57:25.821Z,5.00
2022-09-23T03:00:55.625Z,4.30
2022-09-23T03:04:10.068Z,4.10
2022-09-23T03:07:27.408Z,4.40
2022-09-23T03:10:34.895Z,3.80
2022-09-23T03:14:01.024Z,5.20
2022-09-23T03:16:42.313Z,3.90
2022-09-23T03:19:38.087Z,4.90
2022-09-23T03:22:54.040Z,4.50
2022-09-23T03:25:48.965Z,4.60
2022-09-23T03:29:12.294Z,4.90
2022-09-23T03:31:49.534Z,4.70
2022-09-23T03:34:35.778Z,4.40
2022-09-23T03:37:58.435Z,4.70
2022-09-23T03:40:54.811Z,3.70
2022-09-23T03:43:50.183Z,4.30
2022-09-23T03:46:28.883Z,4.60
2022-09-23T03:49:19.114Z,4.80
2022-09-23T03:52:00.978Z,4.70
2022-09-23T03:54:59.155Z,5.10
2022-09-23T03:57:52.515Z,3.90
2022-09-23T04:00:42.891Z,4.80
2022-09-23T04:03:39.038Z,4.20
2022-09-23T04:06:28.725Z,3.50
2022-09-23T04:09:41.818Z,4.30
2022-09-23T04:12:24.874Z,3.70
2022-09-23T04:15:17.121Z,4.60
2022-09-23T04:17:50.204Z,3.90
2022-09-23T04:20:43.363Z,4.50
2022-09-23T04:23:16.707Z,3.70
2022-09-23T04:25:58.951Z,3.60
2022-09-23T04:28:43.726Z,4.90
2022-09-23T04:31:18.472Z,5.20
2022-09-23T04:34:25.045Z,6.10
2022-09-23T04:37:04.429Z,3.90
2022-09-23T04:39:44.929Z,5.70
2022-09-23T04:42:17.211Z,5.30
2022-09-23T04:45:13.841Z,5.90
2022-09-23T04:48:43.761Z,5.30
2022-09-23T04:51:51.630Z,5.50
2022-09-23T04:54:32.173Z,4.50
2022-09-23T04:57:33.182Z,4.30
2022-09-23T05:00:27.470Z,4.80
2022-09-23T05:03:37.824Z,3.90
2022-09-23T05:06:14.595Z,6.20
2022-09-23T05:08:57.964Z,5.70
2022-09-23T05:11:54.264Z,3.80
2022-09-23T05:15:24.115Z,5.70
2022-09-23T05:17:54.204Z,4.00
2022-09-23T05:20:36.881Z,4.40
2022-09-23T05:23:25.281Z,4.80
2022-09-23T05:26:07.725Z,4.10
2022-09-23T05:28:41.683Z,4.60
2022-09-23T05:31:21.807Z,4.60
2022-09-23T05:36:31.211Z,4.50
2022-09-23T05:39:06.424Z,4.40
2022-09-23T05:41:43.539Z,4.00
2022-09-23T05:44:13.057Z,5.80
2022-09-23T05:47:05.731Z,6.00
2022-09-23T05:49:58.168Z,4.70
2022-09-23T05:53:00.078Z,4.80
2022-09-23T05:55:29.783Z,5.60
2022-09-23T05:58:28.285Z,3.80
2022-09-23T06:01:13.947Z,3.70
2022-09-23T06:04:00.608Z,4.10
2022-09-23T06:09:11.964Z,3.40
2022-09-23T06:11:45.374Z,3.90
2022-09-23T06:14:41.074Z,5.20
2022-09-23T06:17:31.167Z,5.00
2022-09-23T06:20:09.174Z,5.20
2022-09-23T06:22:44.228Z,4.90
2022-09-23T06:25:32.433Z,4.30
2022-09-23T06:28:12.529Z,4.10
2022-09-23T06:31:00.313Z,6.40
2022-09-23T06:34:01.740Z,5.00
2022-09-23T06:36:58.277Z,4.30
2022-09-23T06:42:10.456Z,3.70
2022-09-23T06:44:58.905Z,4.00
2022-09-23T06:47:45.303Z,4.10
2022-09-23T06:51:08.577Z,14.80
2022-09-23T06:54:17.797Z,5.40
2022-09-23T06:56:56.117Z,4.50
2022-09-23T07:00:14.878Z,5.30
2022-09-23T07:03:47.652Z,4.40
2022-09-23T07:06:35.606Z,4.40
2022-09-23T07:09:30.823Z,5.80
2022-09-23T07:12:29.294Z,6.20
2022-09-23T07:15:22.569Z,3.90
2022-09-23T07:18:24.834Z,4.40
2022-09-23T07:21:38.769Z,4.00
2022-09-23T07:24:28.975Z,6.90
2022-09-23T07:27:28.402Z,4.70
2022-09-23T07:30:24.256Z,10.70
2022-09-23T07:33:37.610Z,7.70
2022-09-23T07:36:34.277Z,4.00
2022-09-23T07:39:06.735Z,4.10
2022-09-23T07:41:50.055Z,7.50
2022-09-23T07:44:30.235Z,4.80
2022-09-23T07:47:30.975Z,5.50
2022-09-23T07:50:48.637Z,5.70
2022-09-23T07:53:33.063Z,6.30
2022-09-23T07:56:46.603Z,8.30
2022-09-23T07:59:41.364Z,8.30
2022-09-23T08:02:54.993Z,7.30
2022-09-23T08:05:29.746Z,6.00
2022-09-23T08:08:53.162Z,7.50
2022-09-23T08:11:43.437Z,6.00
2022-09-23T08:14:25.433Z,8.40
2022-09-23T08:16:58.616Z,7.40
2022-09-23T08:20:00.994Z,5.60
2022-09-23T08:22:40.232Z,5.60
2022-09-23T08:26:00.193Z,6.00
2022-09-23T08:28:36.522Z,6.70
2022-09-23T08:31:23.773Z,7.70
2022-09-23T08:34:19.423Z,7.60
2022-09-23T08:37:11.805Z,5.70
2022-09-23T08:40:11.759Z,4.60
2022-09-23T08:43:06.783Z,8.00
2022-09-23T08:45:50.882Z,5.50
2022-09-23T08:48:48.833Z,5.70
2022-09-23T08:51:59.163Z,6.40
2022-09-23T08:54:55.647Z,5.90
2022-09-23T08:58:25.657Z,5.80
2022-09-23T09:01:55.043Z,9.70
2022-09-23T09:04:47.481Z,7.40
2022-09-23T09:07:38.137Z,5.80
2022-09-23T09:10:40.262Z,6.60
2022-09-23T09:13:34.426Z,6.20
2022-09-23T09:16:59.570Z,6.70
2022-09-23T09:20:08.675Z,6.70
2022-09-23T09:23:01.586Z,6.00
2022-09-23T09:26:21.840Z,6.60
2022-09-23T09:29:34.977Z,6.70
2022-09-23T09:33:03.444Z,10.60
2022-09-23T09:35:55.848Z,6.10
2022-09-23T09:38:38.193Z,7.40
2022-09-23T09:41:51.739Z,6.60
2022-09-23T09:44:40.374Z,6.00
2022-09-23T09:47:48.641Z,6.10
2022-09-23T09:51:04.795Z,16.20
2022-09-23T09:53:36.917Z,15.80
2022-09-23T09:56:18.528Z,13.00
2022-09-23T09:59:01.806Z,8.20
2022-09-23T10:01:36.882Z,22.40
2022-09-23T10:04:36.636Z,15.70
2022-09-23T10:07:14.844Z,7.20
2022-09-23T10:10:06.117Z,22.90
2022-09-23T10:13:15.844Z,16.30
2022-09-23T10:15:46.166Z,7.50
2022-09-23T10:18:38.706Z,8.60
2022-09-23T10:21:15.706Z,6.40
2022-09-23T10:23:53.200Z,11.20
2022-09-23T10:26:58.643Z,6.40
2022-09-23T10:29:37.370Z,7.30
2022-09-23T10:32:29.403Z,6.40
2022-09-23T10:35:15.694Z,7.80
2022-09-23T10:38:16.855Z,6.60
2022-09-23T10:41:21.268Z,7.20
2022-09-23T10:44:39.116Z,6.00
2022-09-23T10:47:37.920Z,6.40
2022-09-23T10:50:42.529Z,6.50
2022-09-23T10:53:15.822Z,6.10
2022-09-23T10:56:26.618Z,8.10
2022-09-23T10:59:01.385Z,13.90
2022-09-23T11:02:01.248Z,7.20
2022-09-23T11:05:00.593Z,5.80
2022-09-23T11:07:47.269Z,6.40
2022-09-23T11:10:46.562Z,6.70
2022-09-23T11:13:23.716Z,6.90
2022-09-23T11:16:20.950Z,7.30
2022-09-23T11:19:19.097Z,8.00
2022-09-23T11:22:44.616Z,7.30
2022-09-23T11:25:26.246Z,6.50
2022-09-23T11:28:43.633Z,8.90
2022-09-23T11:31:48.490Z,7.80
2022-09-23T11:35:13.367Z,10.50
2022-09-23T11:38:12.763Z,5.90
2022-09-23T11:40:46.713Z,7.90
2022-09-23T11:43:25.313Z,6.40
2022-09-23T11:46:15.122Z,5.60
2022-09-23T11:49:08.644Z,9.70
2022-09-23T11:52:03.765Z,6.90
2022-09-23T11:54:55.612Z,6.50
2022-09-23T11:57:49.460Z,7.40
2022-09-23T12:00:23.649Z,8.30
2022-09-23T12:06:03.644Z,8.60
2022-09-23T12:08:39.870Z,7.40
2022-09-23T12:11:16.177Z,6.30
2022-09-23T12:14:11.586Z,7.80
2022-09-23T12:16:51.323Z,5.70
2022-09-23T12:20:01.939Z,5.60
2022-09-23T12:22:50.382Z,6.20
2022-09-23T12:25:59.385Z,6.50
2022-09-23T12:28:45.788Z,5.70
2022-09-23T12:31:20.081Z,6.30
2022-09-23T12:33:54.570Z,5.80
2022-09-23T12:36:33.658Z,7.20
2022-09-23T12:39:18.056Z,5.50
2022-09-23T12:42:01.447Z,5.70
2022-09-23T12:44:37.201Z,6.90
2022-09-23T12:47:16.081Z,6.40
2022-09-23T12:49:45.236Z,5.60
2022-09-23T12:52:17.535Z,5.80
2022-09-23T12:54:49.335Z,6.90
2022-09-23T12:57:36.993Z,6.00
2022-09-23T13:00:13.498Z,7.60
2022-09-23T13:03:08.256Z,6.00
2022-09-23T13:06:27.025Z,5.40
2022-09-23T13:08:57.165Z,6.50
2022-09-23T13:11:30.206Z,5.30
2022-09-23T13:14:03.021Z,7.20
2022-09-23T13:16:38.336Z,5.90
2022-09-23T13:19:10.404Z,5.80
2022-09-23T13:21:46.361Z,6.00
2022-09-23T13:24:37.171Z,6.40
2022-09-23T13:27:16.149Z,6.60
2022-09-23T13:29:52.154Z,6.20
2022-09-23T13:32:23.319Z,4.70
2022-09-23T13:35:01.071Z,5.20
2022-09-23T13:37:44.233Z,5.40
2022-09-23T13:40:24.170Z,5.20
2022-09-23T13:42:58.829Z,5.40
2022-09-23T13:45:34.478Z,5.80
2022-09-23T13:48:11.948Z,5.90
2022-09-23T13:50:48.091Z,6.70
2022-09-23T13:53:32.117Z,5.40
2022-09-23T13:56:15.939Z,5.00
2022-09-23T13:58:44.951Z,4.90
2022-09-23T14:01:25.104Z,6.30
2022-09-23T14:03:54.552Z,5.80
2022-09-23T14:06:23.869Z,5.10
2022-09-23T14:08:54.045Z,5.80
2022-09-23T14:11:35.556Z,4.80
2022-09-23T14:14:08.306Z,4.90
2022-09-23T14:16:41.103Z,5.20
2022-09-23T14:19:18.519Z,5.00
2022-09-23T14:21:53.347Z,5.50
2022-09-23T14:24:25.755Z,6.70
2022-09-23T14:27:01.608Z,6.00
2022-09-23T14:29:37.127Z,5.40
2022-09-23T14:32:16.996Z,5.00
2022-09-23T14:35:03.172Z,5.00
2022-09-23T14:37:58.585Z,5.60
2022-09-23T14:40:37.502Z,7.40
2022-09-23T14:43:32.970Z,6.90
2022-09-23T14:46:04.241Z,5.60
2022-09-23T14:48:35.612Z,4.80
2022-09-23T14:51:13.117Z,5.80
2022-09-23T14:53:49.369Z,4.60
2022-09-23T14:56:20.989Z,6.70
2022-09-23T14:58:56.911Z,5.60
2022-09-23T15:01:47.794Z,6.40
2022-09-23T15:04:31.850Z,6.50
2022-09-23T15:07:06.369Z,5.90
2022-09-23T15:09:43.139Z,5.00
2022-09-23T15:12:22.578Z,6.20
2022-09-23T15:14:57.318Z,7.80
2022-09-23T15:17:38.930Z,4.10
2022-09-23T15:20:22.545Z,4.80
2022-09-23T15:23:01.898Z,5.20
2022-09-23T15:25:45.311Z,5.20
2022-09-23T15:28:19.471Z,4.60
2022-09-23T15:30:48.821Z,6.00
2022-09-23T15:33:18.317Z,5.10
2022-09-23T15:35:49.282Z,5.20
2022-09-23T15:38:18.560Z,5.90
2022-09-23T15:40:49.327Z,4.80
2022-09-23T15:43:26.788Z,4.90
2022-09-23T15:46:03.199Z,4.60
2022-09-23T15:48:44.764Z,4.80
2022-09-23T15:51:16.409Z,6.60
2022-09-23T15:53:45.884Z,7.20
2022-09-23T15:56:25.009Z,4.00
2022-09-23T15:58:54.320Z,5.10
2022-09-23T16:01:32.268Z,6.80
2022-09-23T16:04:07.749Z,12.00
2022-09-23T16:06:37.917Z,4.80
2022-09-23T16:09:07.320Z,5.80
2022-09-23T16:11:37.736Z,5.10
2022-09-23T16:14:19.838Z,6.20
2022-09-23T16:16:58.121Z,6.50
2022-09-23T16:19:27.850Z,7.10
2022-09-23T16:21:57.073Z,8.50
2022-09-23T16:24:29.743Z,12.00
2022-09-23T16:27:02.423Z,5.90
2022-09-23T16:29:32.136Z,7.80
2022-09-23T16:32:11.773Z,4.70
2022-09-23T16:37:22.363Z,8.60
2022-09-23T16:39:55.328Z,4.80
2022-09-23T16:42:24.626Z,4.40
2022-09-23T16:44:53.889Z,8.50
2022-09-23T16:47:23.350Z,5.90
2022-09-23T16:49:54.770Z,7.20
2022-09-23T16:52:31.677Z,5.70
2022-09-23T16:55:04.681Z,5.20
2022-09-23T16:57:38.067Z,6.70
2022-09-23T17:00:37.389Z,6.00
2022-09-23T17:03:26.228Z,5.60
2022-09-23T17:06:07.971Z,5.90
2022-09-23T17:08:37.787Z,5.20
2022-09-23T17:11:08.070Z,5.50
2022-09-23T17:13:37.891Z,5.40
2022-09-23T17:16:15.649Z,5.60
2022-09-23T17:18:47.317Z,5.90
2022-09-23T17:21:38.945Z,7.70
2022-09-23T17:24:08.542Z,7.80
2022-09-23T17:26:41.137Z,6.80
2022-09-23T17:29:18.933Z,7.90
2022-09-23T17:32:11.746Z,7.40
2022-09-23T17:34:46.347Z,6.70
2022-09-23T17:37:22.271Z,8.00
2022-09-23T17:40:35.231Z,7.70
2022-09-23T17:43:31.006Z,7.00
2022-09-23T17:46:24.782Z,7.80
2022-09-23T17:49:37.495Z,5.60
2022-09-23T17:52:27.600Z,7.00
2022-09-23T17:55:09.799Z,7.40
2022-09-23T17:57:52.509Z,5.90
2022-09-23T18:00:54.844Z,7.30
2022-09-23T18:03:46.215Z,6.50
2022-09-23T18:06:21.827Z,10.50
2022-09-23T18:09:04.698Z,9.70
2022-09-23T18:12:00.481Z,10.20
2022-09-23T18:14:49.237Z,15.50
2022-09-23T18:17:41.441Z,15.30
2022-09-23T18:20:28.089Z,17.00
2022-09-23T18:23:06.189Z,18.70
2022-09-23T18:25:52.299Z,8.00
2022-09-23T18:28:52.724Z,9.70
2022-09-23T18:31:39.368Z,4.40
2022-09-23T18:34:17.030Z,5.60
2022-09-23T18:37:17.559Z,5.20
2022-09-23T18:39:50.648Z,5.40
2022-09-23T18:42:51.796Z,7.10
2022-09-23T18:45:35.686Z,6.70
2022-09-23T18:49:04.737Z,5.30
2022-09-23T18:52:05.431Z,5.70
2022-09-23T18:54:55.039Z,7.70
2022-09-23T18:57:29.762Z,6.00
2022-09-23T19:00:18.832Z,6.50
2022-09-23T19:02:58.473Z,8.40
2022-09-23T19:05:41.923Z,8.20
2022-09-23T19:08:13.586Z,6.00
2022-09-23T19:11:18.824Z,6.00
2022-09-23T19:14:42.084Z,6.20
2022-09-23T19:17:20.194Z,7.40
2022-09-23T19:19:55.112Z,8.70
2022-09-23T19:22:27.805Z,6.50
2022-09-23T19:25:20.136Z,9.00
2022-09-23T19:28:08.965Z,6.80
2022-09-23T19:30:44.894Z,7.80
2022-09-23T19:33:17.755Z,7.50
2022-09-23T19:35:54.144Z,7.50
2022-09-23T19:38:51.053Z,7.80
2022-09-23T19:42:21.184Z,6.20
2022-09-23T19:45:11.004Z,9.00
2022-09-23T19:48:40.988Z,7.50
2022-09-23T19:51:30.155Z,8.50
2022-09-23T19:54:08.822Z,8.80
2022-09-23T19:57:21.605Z,7.60
2022-09-23T20:00:32.812Z,10.10
2022-09-23T20:03:02.293Z,10.50
2022-09-23T20:05:31.696Z,10.80
2022-09-23T20:08:03.835Z,9.50
2022-09-23T20:10:53.363Z,10.60
2022-09-23T20:13:25.303Z,11.40
2022-09-23T20:16:02.268Z,12.40
2022-09-23T20:18:37.707Z,10.80
2022-09-23T20:21:13.184Z,13.10
2022-09-23T20:24:10.181Z,13.90
2022-09-23T20:27:12.730Z,12.20
2022-09-23T20:30:05.141Z,14.50
2022-09-23T20:32:39.060Z,12.10
2022-09-23T20:35:19.597Z,10.70
2022-09-23T20:37:54.357Z,13.00
2022-09-23T20:40:38.318Z,11.30
2022-09-23T20:43:10.235Z,11.20
2022-09-23T20:45:39.411Z,12.10
2022-09-23T20:48:11.834Z,10.00
2022-09-23T20:50:42.570Z,11.80
2022-09-23T20:53:12.730Z,11.30
2022-09-23T20:56:11.207Z,11.40
2022-09-23T20:58:57.377Z,9.00
2022-09-23T21:02:26.979Z,8.90
2022-09-23T21:04:59.060Z,9.90
2022-09-23T21:07:28.434Z,9.40
2022-09-23T21:10:03.278Z,10.00
2022-09-23T21:12:35.838Z,8.60
2022-09-23T21:15:08.549Z,9.30
2022-09-23T21:17:45.597Z,8.40
2022-09-23T21:20:21.246Z,10.30
2022-09-23T21:22:51.577Z,7.10
2022-09-23T21:25:29.309Z,9.80
2022-09-23T21:28:03.058Z,8.00
2022-09-23T21:30:33.405Z,9.30
2022-09-23T21:33:06.039Z,9.60
2022-09-23T21:35:35.385Z,7.40
2022-09-23T21:38:04.693Z,8.70
2022-09-23T21:40:53.139Z,8.80
2022-09-23T21:43:34.277Z,9.70
2022-09-23T21:46:09.082Z,8.20
2022-09-23T21:48:45.411Z,9.50
2022-09-23T21:51:20.676Z,9.70
2022-09-23T21:53:54.962Z,8.20
2022-09-23T21:56:36.746Z,8.50
2022-09-23T21:59:13.846Z,8.80
2022-09-23T22:01:53.980Z,9.20
2022-09-23T22:04:26.823Z,8.50
2022-09-23T22:07:01.814Z,9.10
2022-09-23T22:09:35.104Z,7.80
2022-09-23T22:12:13.234Z,7.70
2022-09-23T22:14:43.715Z,7.90
2022-09-23T22:17:16.664Z,8.60
2022-09-23T22:19:49.626Z,9.30
2022-09-23T22:22:39.906Z,9.80
2022-09-23T22:25:13.613Z,6.60
2022-09-23T22:28:03.383Z,6.70
2022-09-23T22:30:57.716Z,8.10
2022-09-23T22:33:27.693Z,9.20
2022-09-23T22:36:04.785Z,6.20
2022-09-23T22:38:34.168Z,5.50
2022-09-23T22:41:04.780Z,5.80
2022-09-23T22:43:36.779Z,6.50
2022-09-23T22:46:09.876Z,5.80
2022-09-23T22:49:20.843Z,5.50
2022-09-23T22:51:54.048Z,6.50
2022-09-23T22:54:23.434Z,6.00
2022-09-23T22:56:52.620Z,5.70
2022-09-23T22:59:22.842Z,5.90
2022-09-23T23:01:53.335Z,5.70
2022-09-23T23:04:25.867Z,5.90
2022-09-23T23:06:55.275Z,7.20
2022-09-23T23:09:28.964Z,7.50
2022-09-23T23:12:05.510Z,6.60
2022-09-23T23:14:38.942Z,7.40
2022-09-23T23:17:32.093Z,8.90
2022-09-23T23:20:02.390Z,7.70
2022-09-23T23:22:40.832Z,8.30
2022-09-23T23:25:18.885Z,7.50
2022-09-23T23:27:48.343Z,6.80
2022-09-23T23:30:17.953Z,9.20
2022-09-23T23:32:52.950Z,9.90
2022-09-23T23:35:28.257Z,8.20
2022-09-23T23:38:03.536Z,7.50
2022-09-23T23:40:38.919Z,8.80
2022-09-23T23:43:25.214Z,7.30
2022-09-23T23:46:12.058Z,9.30
2022-09-23T23:48:48.532Z,11.00
2022-09-23T23:51:18.402Z,8.90
2022-09-23T23:54:01.643Z,9.20
2022-09-23T23:56:33.686Z,9.70
2022-09-23T23:59:09.398Z,9.40
